createdAt,value
2023-03-15T00:01:18.795Z,76.67
2023-03-15T00:03:45.167Z,77.76
2023-03-15T00:06:11.506Z,77.95
2023-03-15T00:08:37.866Z,77.38
2023-03-15T00:11:04.188Z,77.48
2023-03-15T00:13:30.765Z,77.45
2023-03-15T00:15:57.115Z,78.00
2023-03-15T00:18:23.446Z,78.99
2023-03-15T00:20:49.823Z,78.50
2023-03-15T00:23:16.132Z,78.65
2023-03-15T00:25:42.485Z,78.80
2023-03-15T00:28:08.813Z,78.16
2023-03-15T00:30:35.132Z,78.71
2023-03-15T00:33:01.434Z,79.02
2023-03-15T00:35:27.774Z,78.32
2023-03-15T00:37:54.737Z,79.14
2023-03-15T00:40:21.103Z,78.37
2023-03-15T00:42:50.504Z,78.74
2023-03-15T00:45:16.810Z,78.13
2023-03-15T00:47:43.122Z,77.30
2023-03-15T00:50:09.445Z,79.39
2023-03-15T00:52:36.095Z,79.36
2023-03-15T00:55:02.428Z,79.99
2023-03-15T00:57:29.041Z,80.22
2023-03-15T00:59:55.434Z,80.36
2023-03-15T01:02:24.923Z,78.87
2023-03-15T01:04:51.459Z,79.55
2023-03-15T01:07:17.811Z,79.01
2023-03-15T01:09:46.341Z,79.64
2023-03-15T01:12:14.331Z,79.79
2023-03-15T01:14:40.701Z,79.98
2023-03-15T01:17:07.037Z,79.87
2023-03-15T01:19:33.338Z,80.86
2023-03-15T01:21:59.662Z,80.92
2023-03-15T01:24:26.030Z,81.61
2023-03-15T01:26:52.381Z,80.91
2023-03-15T01:29:18.756Z,81.90
2023-03-15T01:31:45.129Z,80.99
2023-03-15T01:34:11.524Z,82.18
2023-03-15T01:36:37.862Z,81.51
2023-03-15T01:39:04.190Z,82.27
2023-03-15T01:41:30.517Z,82.32
2023-03-15T01:43:56.903Z,83.16
2023-03-15T01:46:23.855Z,83.22
2023-03-15T01:48:50.829Z,83.96
2023-03-15T01:51:17.340Z,83.75
2023-03-15T01:53:43.734Z,83.87
2023-03-15T01:56:10.113Z,83.49
2023-03-15T01:58:36.983Z,83.81
2023-03-15T02:01:03.380Z,85.31
2023-03-15T02:03:29.786Z,85.53
2023-03-15T02:05:56.133Z,86.58
2023-03-15T02:08:22.475Z,87.71
2023-03-15T02:10:48.808Z,89.29
2023-03-15T02:13:15.128Z,89.11
2023-03-15T02:15:46.822Z,88.58
2023-03-15T02:18:13.333Z,87.84
2023-03-15T02:20:39.719Z,88.21
2023-03-15T02:23:06.029Z,88.85
2023-03-15T02:25:32.342Z,88.87
2023-03-15T02:27:58.651Z,89.81
2023-03-15T02:30:24.958Z,90.18
2023-03-15T02:32:51.315Z,90.02
2023-03-15T02:35:17.640Z,89.78
2023-03-15T02:37:46.052Z,89.93
2023-03-15T02:40:12.373Z,89.46
2023-03-15T02:42:38.686Z,90.53
2023-03-15T02:45:05.008Z,90.22
2023-03-15T02:47:31.345Z,90.38
2023-03-15T02:49:57.667Z,90.38
2023-03-15T02:52:23.973Z,89.80
2023-03-15T02:54:50.290Z,88.84
2023-03-15T02:57:16.619Z,87.12
2023-03-15T02:59:43.031Z,87.86
2023-03-15T03:02:11.790Z,88.54
2023-03-15T03:04:38.170Z,89.37
2023-03-15T03:07:04.479Z,88.48
2023-03-15T03:09:30.798Z,87.81
2023-03-15T03:11:57.136Z,88.89
2023-03-15T03:14:26.539Z,89.83
2023-03-15T03:16:52.896Z,89.84
2023-03-15T03:19:19.266Z,90.01
2023-03-15T03:21:45.584Z,90.53
2023-03-15T03:24:11.911Z,90.95
2023-03-15T03:26:38.303Z,91.04
2023-03-15T03:29:05.778Z,91.85
2023-03-15T03:31:35.264Z,92.50
2023-03-15T03:34:01.668Z,93.02
2023-03-15T03:36:27.970Z,93.45
2023-03-15T03:38:54.297Z,93.81
2023-03-15T03:41:21.413Z,93.96
2023-03-15T03:43:47.771Z,93.73
2023-03-15T03:46:14.107Z,93.59
2023-03-15T03:48:40.550Z,94.51
2023-03-15T03:51:06.869Z,94.65
2023-03-15T03:53:33.196Z,93.77
2023-03-15T03:55:59.520Z,92.72
2023-03-15T03:58:25.858Z,91.81
2023-03-15T04:00:54.354Z,91.58
2023-03-15T04:03:27.444Z,90.93
2023-03-15T04:05:53.801Z,90.53
2023-03-15T04:08:20.152Z,89.79
2023-03-15T04:10:46.475Z,89.56
2023-03-15T04:13:12.874Z,89.01
2023-03-15T04:15:39.269Z,88.54
2023-03-15T04:18:05.924Z,88.62
2023-03-15T04:20:34.706Z,88.30
2023-03-15T04:23:01.040Z,88.39
2023-03-15T04:25:27.363Z,88.41
2023-03-15T04:27:59.817Z,88.92
2023-03-15T04:30:27.239Z,88.56
2023-03-15T04:32:59.660Z,89.02
2023-03-15T04:35:26.021Z,88.58
2023-03-15T04:37:52.336Z,88.93
2023-03-15T04:40:18.690Z,89.17
2023-03-15T04:42:45.010Z,89.49
2023-03-15T04:45:11.320Z,89.51
2023-03-15T04:47:37.636Z,89.34
2023-03-15T04:50:03.944Z,89.16
2023-03-15T04:52:30.265Z,89.26
2023-03-15T04:54:56.592Z,89.39
2023-03-15T04:57:22.941Z,89.67
2023-03-15T04:59:49.269Z,89.58
2023-03-15T05:02:15.596Z,90.17
2023-03-15T05:04:41.965Z,90.87
2023-03-15T05:07:08.271Z,90.69
2023-03-15T05:09:39.788Z,91.43
2023-03-15T05:12:06.295Z,91.34
2023-03-15T05:14:32.603Z,91.30
2023-03-15T05:16:59.797Z,90.92
2023-03-15T05:19:26.221Z,89.99
2023-03-15T05:21:54.747Z,89.86
2023-03-15T05:24:21.061Z,88.49
2023-03-15T05:26:47.532Z,87.62
2023-03-15T05:29:13.853Z,87.65
2023-03-15T05:31:40.170Z,86.74
2023-03-15T05:34:06.502Z,85.52
2023-03-15T05:36:32.834Z,85.38
2023-03-15T05:38:59.180Z,86.32
2023-03-15T05:41:25.475Z,86.08
2023-03-15T05:43:51.838Z,85.81
2023-03-15T05:46:18.215Z,85.02
2023-03-15T05:48:44.561Z,84.56
2023-03-15T05:51:10.867Z,84.06
2023-03-15T05:53:37.242Z,83.67
2023-03-15T05:56:03.558Z,83.85
2023-03-15T05:58:29.892Z,83.11
2023-03-15T06:00:56.231Z,82.62
2023-03-15T06:03:22.633Z,82.54
2023-03-15T06:05:49.029Z,81.90
2023-03-15T06:08:15.426Z,80.98
2023-03-15T06:10:41.778Z,80.95
2023-03-15T06:13:08.183Z,80.07
2023-03-15T06:15:34.522Z,80.82
2023-03-15T06:18:00.878Z,80.42
2023-03-15T06:20:27.203Z,80.04
2023-03-15T06:22:53.594Z,78.39
2023-03-15T06:25:19.945Z,79.07
2023-03-15T06:27:46.257Z,78.08
2023-03-15T06:30:12.877Z,77.81
2023-03-15T06:32:39.901Z,77.38
2023-03-15T06:35:06.442Z,76.70
2023-03-15T06:37:35.265Z,76.14
2023-03-15T06:40:01.969Z,75.83
2023-03-15T06:42:28.317Z,75.38
2023-03-15T06:44:54.637Z,76.18
2023-03-15T06:47:20.983Z,74.39
2023-03-15T06:49:50.455Z,73.73
2023-03-15T06:52:16.822Z,73.70
2023-03-15T06:54:43.162Z,72.42
2023-03-15T06:57:09.473Z,73.19
2023-03-15T06:59:35.800Z,71.99
2023-03-15T07:02:02.103Z,71.29
2023-03-15T07:04:28.461Z,71.21
2023-03-15T07:06:55.441Z,70.18
2023-03-15T07:09:21.796Z,68.06
2023-03-15T07:11:48.134Z,68.94
2023-03-15T07:14:14.452Z,69.31
2023-03-15T07:16:40.825Z,67.89
2023-03-15T07:19:07.223Z,66.91
2023-03-15T07:21:33.540Z,68.06
2023-03-15T07:23:59.862Z,66.25
2023-03-15T07:26:26.217Z,65.45
2023-03-15T07:28:52.524Z,65.14
2023-03-15T07:31:18.900Z,66.24
2023-03-15T07:33:45.280Z,65.59
2023-03-15T07:36:11.672Z,65.33
2023-03-15T07:38:38.019Z,64.29
2023-03-15T07:41:04.379Z,65.17
2023-03-15T07:43:30.681Z,61.89
2023-03-15T07:45:57.018Z,63.29
2023-03-15T07:48:23.343Z,62.36
2023-03-15T07:50:49.757Z,62.26
2023-03-15T07:53:16.158Z,63.71
2023-03-15T07:55:42.474Z,61.79
2023-03-15T07:58:08.793Z,61.20
2023-03-15T08:00:35.102Z,61.40
2023-03-15T08:03:01.425Z,61.74
2023-03-15T08:05:29.173Z,62.16
2023-03-15T08:07:56.736Z,62.25
2023-03-15T08:10:23.208Z,61.45
2023-03-15T08:12:49.538Z,59.82
2023-03-15T08:15:15.895Z,59.25
2023-03-15T08:17:42.246Z,60.08
2023-03-15T08:20:11.711Z,59.76
2023-03-15T08:22:38.555Z,58.71
2023-03-15T08:25:04.907Z,59.42
2023-03-15T08:27:31.234Z,58.84
2023-03-15T08:29:57.546Z,59.07
2023-03-15T08:32:23.891Z,59.30
2023-03-15T08:34:50.223Z,59.01
2023-03-15T08:37:16.541Z,58.59
2023-03-15T08:39:43.831Z,60.12
2023-03-15T08:42:10.625Z,58.75
2023-03-15T08:44:36.973Z,59.87
2023-03-15T08:47:03.305Z,60.68
2023-03-15T08:49:29.611Z,60.21
2023-03-15T08:51:55.920Z,60.76
2023-03-15T08:54:23.586Z,62.10
2023-03-15T08:56:49.921Z,65.12
2023-03-15T08:59:29.084Z,67.21
2023-03-15T09:01:57.258Z,71.13
2023-03-15T09:04:24.130Z,74.09
2023-03-15T09:06:50.483Z,77.13
2023-03-15T09:09:17.596Z,81.87
2023-03-15T09:11:43.922Z,85.05
2023-03-15T09:14:10.239Z,86.64
2023-03-15T09:16:36.670Z,86.65
2023-03-15T09:19:03.101Z,89.45
2023-03-15T09:21:29.469Z,89.59
2023-03-15T09:23:55.809Z,88.51
2023-03-15T09:26:22.153Z,87.51
2023-03-15T09:28:48.460Z,88.90
2023-03-15T09:31:14.810Z,90.05
2023-03-15T09:33:41.181Z,87.58
2023-03-15T09:36:07.601Z,87.21
2023-03-15T09:38:33.922Z,83.90
2023-03-15T09:41:00.357Z,86.06
2023-03-15T09:43:26.670Z,84.67
2023-03-15T09:45:53.093Z,84.22
2023-03-15T09:48:19.450Z,83.67
2023-03-15T09:50:45.808Z,82.31
2023-03-15T09:53:12.158Z,81.39
2023-03-15T09:55:38.481Z,82.06
2023-03-15T09:58:04.807Z,83.09
2023-03-15T10:00:31.135Z,83.89
2023-03-15T10:02:59.276Z,83.37
2023-03-15T10:05:25.627Z,83.75
2023-03-15T10:07:52.450Z,81.48
2023-03-15T10:10:18.874Z,78.53
2023-03-15T10:12:45.212Z,77.59
2023-03-15T10:15:11.630Z,77.72
2023-03-15T10:17:38.027Z,76.36
2023-03-15T10:20:06.127Z,75.11
2023-03-15T10:22:32.488Z,74.79
2023-03-15T10:24:58.872Z,74.12
2023-03-15T10:27:25.189Z,74.60
2023-03-15T10:29:51.810Z,73.88
2023-03-15T10:32:18.347Z,74.79
2023-03-15T10:34:45.584Z,75.31
2023-03-15T10:37:13.241Z,74.94
2023-03-15T10:39:39.612Z,77.17
2023-03-15T10:42:05.945Z,76.03
2023-03-15T10:44:32.286Z,76.22
2023-03-15T10:46:58.801Z,75.30
2023-03-15T10:49:25.158Z,75.50
2023-03-15T10:51:51.467Z,73.40
2023-03-15T10:54:17.884Z,72.16
2023-03-15T10:56:44.264Z,72.33
2023-03-15T10:59:12.985Z,71.91
2023-03-15T11:01:39.556Z,71.36
2023-03-15T11:04:05.954Z,72.31
2023-03-15T11:06:32.399Z,72.25
2023-03-15T11:08:58.722Z,72.37
2023-03-15T11:11:25.125Z,70.86
2023-03-15T11:13:51.442Z,70.43
2023-03-15T11:16:17.791Z,69.63
2023-03-15T11:18:44.212Z,69.86
2023-03-15T11:21:10.576Z,70.43
2023-03-15T11:23:36.948Z,70.51
2023-03-15T11:26:03.663Z,71.15
2023-03-15T11:28:29.995Z,70.62
2023-03-15T11:30:56.374Z,71.53
2023-03-15T11:33:22.730Z,70.04
2023-03-15T11:35:49.998Z,70.16
2023-03-15T11:38:16.755Z,70.82
2023-03-15T11:40:43.224Z,70.94
2023-03-15T11:43:09.594Z,70.36
2023-03-15T11:45:36.270Z,71.27
2023-03-15T11:48:02.582Z,72.06
2023-03-15T11:50:29.194Z,71.46
2023-03-15T11:52:55.497Z,72.39
2023-03-15T11:55:22.169Z,72.13
2023-03-15T11:57:48.545Z,72.96
2023-03-15T12:00:15.647Z,72.13
2023-03-15T12:02:42.086Z,70.79
2023-03-15T12:05:18.064Z,70.83
2023-03-15T12:07:44.695Z,71.80
2023-03-15T12:10:11.022Z,70.45
2023-03-15T12:12:37.712Z,69.19
2023-03-15T12:15:05.427Z,66.90
2023-03-15T12:17:31.793Z,68.72
2023-03-15T12:19:58.128Z,68.17
2023-03-15T12:22:24.476Z,68.99
2023-03-15T12:24:50.788Z,67.34
2023-03-15T12:27:17.165Z,68.06
2023-03-15T12:29:44.650Z,65.95
2023-03-15T12:32:12.039Z,65.74
2023-03-15T12:34:38.408Z,65.68
2023-03-15T12:37:04.751Z,64.60
2023-03-15T12:39:31.898Z,63.89
2023-03-15T12:41:58.224Z,62.92
2023-03-15T12:44:24.555Z,63.36
2023-03-15T12:46:50.914Z,63.65
2023-03-15T12:49:17.254Z,63.98
2023-03-15T12:51:43.578Z,64.37
2023-03-15T12:54:10.031Z,64.72
2023-03-15T12:56:36.400Z,65.75
2023-03-15T12:59:05.034Z,65.60
2023-03-15T13:01:31.351Z,64.05
2023-03-15T13:03:58.275Z,65.18
2023-03-15T13:06:24.669Z,65.93
2023-03-15T13:08:51.010Z,66.35
2023-03-15T13:11:17.368Z,65.69
2023-03-15T13:13:45.065Z,65.35
2023-03-15T13:16:15.582Z,65.55
2023-03-15T13:18:41.996Z,65.20
2023-03-15T13:21:08.390Z,64.84
2023-03-15T13:23:34.722Z,63.82
2023-03-15T13:26:02.906Z,62.50
2023-03-15T13:28:29.298Z,62.87
2023-03-15T13:30:55.645Z,62.68
2023-03-15T13:33:22.105Z,61.80
2023-03-15T13:35:48.512Z,61.40
2023-03-15T13:38:14.861Z,61.70
2023-03-15T13:40:41.164Z,60.29
2023-03-15T13:43:07.483Z,59.30
2023-03-15T13:45:33.913Z,59.48
2023-03-15T13:48:00.243Z,59.84
2023-03-15T13:50:26.581Z,59.05
2023-03-15T13:52:52.970Z,60.20
2023-03-15T13:55:19.308Z,59.75
2023-03-15T13:57:45.612Z,58.06
2023-03-15T14:00:12.193Z,60.58
2023-03-15T14:02:38.615Z,60.61
2023-03-15T14:05:05.416Z,58.42
2023-03-15T14:07:31.879Z,59.81
2023-03-15T14:09:58.248Z,58.87
2023-03-15T14:12:24.583Z,60.10
2023-03-15T14:14:51.452Z,61.11
2023-03-15T14:17:18.451Z,60.80
2023-03-15T14:19:44.804Z,61.57
2023-03-15T14:22:11.181Z,60.95
2023-03-15T14:24:37.668Z,60.80
2023-03-15T14:27:04.086Z,61.93
2023-03-15T14:29:30.745Z,60.79
2023-03-15T14:31:57.078Z,59.77
2023-03-15T14:34:23.942Z,60.38
2023-03-15T14:36:51.474Z,60.04
2023-03-15T14:39:17.966Z,59.70
2023-03-15T14:41:44.296Z,59.04
2023-03-15T14:44:10.661Z,58.19
2023-03-15T14:46:36.958Z,58.71
2023-03-15T14:49:03.318Z,55.92
2023-03-15T14:51:29.726Z,57.84
2023-03-15T14:53:56.385Z,57.15
2023-03-15T14:56:22.737Z,56.79
2023-03-15T14:58:49.626Z,58.41
2023-03-15T15:01:16.011Z,57.62
2023-03-15T15:03:42.358Z,58.95
2023-03-15T15:06:08.690Z,57.40
2023-03-15T15:08:38.503Z,56.46
2023-03-15T15:11:05.028Z,55.84
2023-03-15T15:13:31.765Z,55.20
2023-03-15T15:15:58.164Z,54.58
2023-03-15T15:18:24.558Z,54.72
2023-03-15T15:20:54.355Z,55.32
2023-03-15T15:23:20.728Z,54.11
2023-03-15T15:25:48.154Z,55.35
2023-03-15T15:28:23.924Z,53.64
2023-03-15T15:30:59.368Z,53.15
2023-03-15T15:33:25.675Z,52.19
2023-03-15T15:35:53.210Z,51.50
2023-03-15T15:38:19.614Z,52.16
2023-03-15T15:40:45.924Z,51.81
2023-03-15T15:43:12.272Z,51.13
2023-03-15T15:45:38.620Z,51.72
2023-03-15T15:48:06.319Z,52.16
2023-03-15T15:50:32.625Z,52.13
2023-03-15T15:52:59.236Z,51.98
2023-03-15T15:55:25.583Z,54.05
2023-03-15T15:57:51.901Z,53.08
2023-03-15T16:00:19.090Z,52.99
2023-03-15T16:02:45.512Z,52.86
2023-03-15T16:05:12.062Z,54.99
2023-03-15T16:07:38.453Z,54.83
2023-03-15T16:10:04.792Z,55.28
2023-03-15T16:12:32.834Z,54.61
2023-03-15T16:14:59.154Z,54.73
2023-03-15T16:17:25.511Z,55.89
2023-03-15T16:19:51.852Z,57.30
2023-03-15T16:22:18.190Z,56.69
2023-03-15T16:24:45.551Z,57.20
2023-03-15T16:27:12.051Z,58.20
2023-03-15T16:29:38.419Z,57.89
2023-03-15T16:32:16.408Z,57.65
2023-03-15T16:34:48.567Z,57.58
2023-03-15T16:37:15.104Z,57.83
2023-03-15T16:39:41.434Z,58.72
2023-03-15T16:42:07.732Z,58.30
2023-03-15T16:44:34.058Z,59.03
2023-03-15T16:47:00.498Z,58.50
2023-03-15T16:49:26.872Z,58.48
2023-03-15T16:51:53.232Z,59.59
2023-03-15T16:57:05.949Z,60.05
2023-03-15T16:59:32.292Z,60.03
2023-03-15T17:01:58.772Z,60.28
2023-03-15T17:04:25.261Z,60.67
2023-03-15T17:09:18.267Z,59.71
2023-03-15T17:11:44.652Z,60.78
2023-03-15T17:14:10.988Z,60.23
2023-03-15T17:16:37.318Z,61.16
2023-03-15T17:19:04.410Z,61.34
2023-03-15T17:21:31.322Z,61.46
2023-03-15T17:23:57.630Z,61.75
2023-03-15T17:26:24.512Z,62.10
2023-03-15T17:28:50.993Z,62.48
2023-03-15T17:31:24.847Z,63.04
2023-03-15T17:33:51.557Z,63.37
2023-03-15T17:36:18.084Z,63.49
2023-03-15T17:38:44.637Z,63.27
2023-03-15T17:41:10.962Z,63.83
2023-03-15T17:43:37.424Z,63.56
2023-03-15T17:46:03.783Z,64.17
2023-03-15T17:48:30.118Z,64.11
2023-03-15T17:50:56.439Z,64.52
2023-03-15T17:53:22.742Z,64.10
2023-03-15T17:55:49.279Z,64.63
2023-03-15T17:58:15.679Z,64.80
2023-03-15T18:00:43.582Z,65.28
2023-03-15T18:03:09.954Z,65.64
2023-03-15T18:05:36.295Z,66.11
2023-03-15T18:08:04.076Z,66.20
2023-03-15T18:10:30.442Z,67.06
2023-03-15T18:12:56.793Z,67.04
2023-03-15T18:15:24.050Z,67.71
2023-03-15T18:17:50.918Z,68.17
2023-03-15T18:20:17.235Z,68.30
2023-03-15T18:22:43.597Z,68.40
2023-03-15T18:25:09.913Z,69.29
2023-03-15T18:27:36.309Z,68.94
2023-03-15T18:30:03.146Z,68.87
2023-03-15T18:32:29.487Z,69.53
2023-03-15T18:34:55.895Z,69.69
2023-03-15T18:37:22.241Z,68.88
2023-03-15T18:39:48.572Z,69.16
2023-03-15T18:42:14.910Z,69.34
2023-03-15T18:44:41.298Z,69.38
2023-03-15T18:47:08.691Z,69.06
2023-03-15T18:49:35.710Z,69.32
2023-03-15T18:52:02.109Z,69.30
2023-03-15T18:54:28.409Z,69.70
2023-03-15T18:56:54.834Z,70.23
2023-03-15T18:59:21.222Z,70.34
2023-03-15T19:01:47.621Z,70.76
2023-03-15T19:04:13.937Z,72.02
2023-03-15T19:06:40.369Z,71.89
2023-03-15T19:09:06.730Z,72.41
2023-03-15T19:11:37.451Z,73.20
2023-03-15T19:14:03.776Z,73.66
2023-03-15T19:16:31.597Z,73.28
2023-03-15T19:18:58.159Z,74.36
2023-03-15T19:21:26.327Z,74.42
2023-03-15T19:23:58.153Z,74.27
2023-03-15T19:26:24.926Z,75.02
2023-03-15T19:28:51.261Z,75.20
2023-03-15T19:31:18.058Z,75.48
2023-03-15T19:33:44.418Z,75.76
2023-03-15T19:36:10.885Z,76.23
2023-03-15T19:38:37.644Z,76.58
2023-03-15T19:41:04.147Z,76.68
2023-03-15T19:43:30.672Z,76.92
2023-03-15T19:45:57.157Z,77.28
2023-03-15T19:48:23.522Z,78.54
2023-03-15T19:50:50.003Z,78.21
2023-03-15T19:53:16.333Z,78.70
2023-03-15T19:55:42.667Z,78.54
2023-03-15T19:58:08.999Z,79.09
2023-03-15T20:00:35.418Z,79.53
2023-03-15T20:03:01.739Z,79.41
2023-03-15T20:05:28.120Z,79.67
2023-03-15T20:07:54.467Z,79.86
2023-03-15T20:10:21.074Z,79.91
2023-03-15T20:12:48.106Z,80.07
2023-03-15T20:15:14.426Z,80.84
2023-03-15T20:17:41.085Z,80.97
2023-03-15T20:20:11.465Z,81.16
2023-03-15T20:22:40.535Z,81.55
2023-03-15T20:25:07.473Z,81.90
2023-03-15T20:27:33.858Z,82.16
2023-03-15T20:30:00.262Z,82.27
2023-03-15T20:32:26.620Z,82.55
2023-03-15T20:34:57.448Z,82.96
2023-03-15T20:37:23.850Z,82.99
2023-03-15T20:39:50.197Z,83.03
2023-03-15T20:42:16.537Z,83.03
2023-03-15T20:44:42.935Z,83.70
2023-03-15T20:47:09.358Z,84.05
2023-03-15T20:49:35.816Z,84.47
2023-03-15T20:52:02.249Z,85.65
2023-03-15T20:54:28.783Z,85.17
2023-03-15T20:56:55.221Z,85.49
2023-03-15T20:59:22.574Z,86.28
2023-03-15T21:01:49.230Z,86.31
2023-03-15T21:04:16.309Z,86.29
2023-03-15T21:06:42.707Z,86.19
2023-03-15T21:09:09.111Z,86.47
2023-03-15T21:11:35.523Z,86.95
2023-03-15T21:14:01.878Z,87.84
2023-03-15T21:16:28.224Z,87.78
2023-03-15T21:18:55.201Z,87.48
2023-03-15T21:21:21.604Z,88.51
2023-03-15T21:23:48.070Z,88.91
2023-03-15T21:26:14.460Z,88.53
2023-03-15T21:28:40.805Z,87.63
2023-03-15T21:31:07.191Z,87.08
2023-03-15T21:33:33.536Z,87.19
2023-03-15T21:35:59.961Z,87.04
2023-03-15T21:38:26.366Z,87.39
2023-03-15T21:40:57.981Z,87.65
2023-03-15T21:43:24.388Z,89.00
2023-03-15T21:45:51.007Z,89.29
2023-03-15T21:48:18.524Z,88.85
2023-03-15T21:50:44.876Z,88.85
2023-03-15T21:53:11.177Z,88.57
2023-03-15T21:55:37.500Z,89.13
2023-03-15T21:58:04.772Z,89.59
2023-03-15T22:00:31.102Z,89.17
2023-03-15T22:02:57.454Z,90.75
2023-03-15T22:05:23.820Z,90.80
2023-03-15T22:07:50.227Z,90.47
2023-03-15T22:10:16.691Z,91.82
2023-03-15T22:12:43.006Z,92.44
2023-03-15T22:15:09.337Z,92.60
2023-03-15T22:17:35.639Z,92.68
2023-03-15T22:20:02.314Z,92.84
2023-03-15T22:22:28.656Z,91.79
2023-03-15T22:24:54.964Z,92.55
2023-03-15T22:27:21.318Z,92.92
2023-03-15T22:29:47.638Z,92.80
2023-03-15T22:32:14.020Z,92.35
2023-03-15T22:34:40.514Z,92.00
2023-03-15T22:37:07.194Z,91.77
2023-03-15T22:39:34.214Z,91.82
2023-03-15T22:42:00.525Z,92.73
2023-03-15T22:44:28.914Z,92.79
2023-03-15T22:46:56.395Z,92.86
2023-03-15T22:49:23.816Z,92.57
2023-03-15T22:51:50.113Z,93.20
2023-03-15T22:54:16.483Z,92.84
2023-03-15T22:56:42.801Z,93.23
2023-03-15T22:59:09.153Z,92.61
2023-03-15T23:01:35.582Z,93.59
2023-03-15T23:04:02.028Z,93.20
2023-03-15T23:06:28.354Z,93.21
2023-03-15T23:08:54.674Z,93.83
2023-03-15T23:11:20.989Z,96.75
2023-03-15T23:13:48.886Z,95.58
2023-03-15T23:16:15.224Z,95.89
2023-03-15T23:18:41.905Z,95.47
2023-03-15T23:21:08.231Z,94.64
2023-03-15T23:23:34.639Z,94.17
2023-03-15T23:26:02.372Z,94.05
2023-03-15T23:28:28.751Z,94.25
2023-03-15T23:30:55.123Z,93.98
2023-03-15T23:33:21.509Z,94.13
2023-03-15T23:35:47.818Z,94.37
2023-03-15T23:38:14.138Z,95.46
2023-03-15T23:40:40.469Z,94.07
2023-03-15T23:43:09.377Z,93.83
2023-03-15T23:45:35.701Z,94.56
2023-03-15T23:48:02.723Z,94.64
2023-03-15T23:50:29.235Z,94.64
2023-03-15T23:52:55.692Z,96.48
2023-03-15T23:55:22.066Z,96.39
2023-03-15T23:57:48.565Z,96.91
